sensor_id;sensor_type;location;lat;lon;timestamp;P1;durP1;ratioP1;P2;durP2;ratioP2
3052;SDS011;1536;51.098;6.414;2022-09-11T00:02:08;14.63;;;12.97;;
3052;SDS011;1536;51.098;6.414;2022-09-11T00:04:35;16.40;;;12.73;;
3052;SDS011;1536;51.098;6.414;2022-09-11T00:07:01;15.43;;;12.97;;
3052;SDS011;1536;51.098;6.414;2022-09-11T00:09:30;13.20;;;11.87;;
3052;SDS011;1536;51.098;6.414;2022-09-11T00:11:56;15.30;;;12.27;;
3052;SDS011;1536;51.098;6.414;2022-09-11T00:14:23;17.77;;;12.07;;
3052;SDS011;1536;51.098;6.414;2022-09-11T00:16:52;14.97;;;13.47;;
3052;SDS011;1536;51.098;6.414;2022-09-11T00:19:19;20.53;;;14.27;;
3052;SDS011;1536;51.098;6.414;2022-09-11T00:21:46;15.47;;;13.87;;
3052;SDS011;1536;51.098;6.414;2022-09-11T00:24:14;15.00;;;13.47;;
3052;SDS011;1536;51.098;6.414;2022-09-11T00:26:43;15.30;;;13.70;;
3052;SDS011;1536;51.098;6.414;2022-09-11T00:29:11;21.77;;;13.10;;
3052;SDS011;1536;51.098;6.414;2022-09-11T00:31:38;14.90;;;13.10;;
3052;SDS011;1536;51.098;6.414;2022-09-11T00:34:05;16.00;;;14.50;;
3052;SDS011;1536;51.098;6.414;2022-09-11T00:36:32;16.63;;;14.87;;
3052;SDS011;1536;51.098;6.414;2022-09-11T00:39:01;16.80;;;15.00;;
3052;SDS011;1536;51.098;6.414;2022-09-11T00:41:30;17.63;;;14.53;;
3052;SDS011;1536;51.098;6.414;2022-09-11T00:44:01;14.90;;;13.30;;
3052;SDS011;1536;51.098;6.414;2022-09-11T00:46:31;15.83;;;14.07;;
3052;SDS011;1536;51.098;6.414;2022-09-11T00:49:02;15.33;;;13.83;;
3052;SDS011;1536;51.098;6.414;2022-09-11T00:51:38;17.03;;;14.50;;
3052;SDS011;1536;51.098;6.414;2022-09-11T00:54:05;15.67;;;14.17;;
3052;SDS011;1536;51.098;6.414;2022-09-11T00:56:37;21.60;;;14.10;;
3052;SDS011;1536;51.098;6.414;2022-09-11T00:59:08;18.20;;;15.53;;
3052;SDS011;1536;51.098;6.414;2022-09-11T01:01:36;17.93;;;16.03;;
3052;SDS011;1536;51.098;6.414;2022-09-11T01:04:03;17.73;;;15.97;;
3052;SDS011;1536;51.098;6.414;2022-09-11T01:06:32;16.17;;;14.40;;
3052;SDS011;1536;51.098;6.414;2022-09-11T01:08:59;17.50;;;15.50;;
3052;SDS011;1536;51.098;6.414;2022-09-11T01:11:30;17.73;;;14.70;;
3052;SDS011;1536;51.098;6.414;2022-09-11T01:14:11;17.13;;;15.30;;
3052;SDS011;1536;51.098;6.414;2022-09-11T01:16:50;16.67;;;14.90;;
3052;SDS011;1536;51.098;6.414;2022-09-11T01:19:26;19.70;;;15.80;;
3052;SDS011;1536;51.098;6.414;2022-09-11T01:22:17;17.40;;;14.53;;
3052;SDS011;1536;51.098;6.414;2022-09-11T01:24:58;16.27;;;14.40;;
3052;SDS011;1536;51.098;6.414;2022-09-11T01:27:39;15.90;;;14.30;;
3052;SDS011;1536;51.098;6.414;2022-09-11T01:30:14;16.30;;;14.50;;
3052;SDS011;1536;51.098;6.414;2022-09-11T01:32:46;17.43;;;15.67;;
3052;SDS011;1536;51.098;6.414;2022-09-11T01:35:31;19.23;;;16.30;;
3052;SDS011;1536;51.098;6.414;2022-09-11T01:38:08;18.43;;;16.57;;
3052;SDS011;1536;51.098;6.414;2022-09-11T01:40:42;20.77;;;17.30;;
3052;SDS011;1536;51.098;6.414;2022-09-11T01:43:19;22.00;;;18.00;;
3052;SDS011;1536;51.098;6.414;2022-09-11T01:45:51;24.20;;;20.43;;
3052;SDS011;1536;51.098;6.414;2022-09-11T01:48:20;26.60;;;21.00;;
3052;SDS011;1536;51.098;6.414;2022-09-11T01:50:50;24.80;;;20.43;;
3052;SDS011;1536;51.098;6.414;2022-09-11T01:53:18;23.67;;;19.50;;
3052;SDS011;1536;51.098;6.414;2022-09-11T01:55:50;24.17;;;20.57;;
3052;SDS011;1536;51.098;6.414;2022-09-11T01:58:23;26.47;;;22.77;;
3052;SDS011;1536;51.098;6.414;2022-09-11T02:00:54;23.83;;;20.97;;
3052;SDS011;1536;51.098;6.414;2022-09-11T02:03:27;26.77;;;21.73;;
3052;SDS011;1536;51.098;6.414;2022-09-11T02:06:02;29.40;;;23.90;;
3052;SDS011;1536;51.098;6.414;2022-09-11T02:08:34;29.40;;;23.27;;
3052;SDS011;1536;51.098;6.414;2022-09-11T02:11:05;29.13;;;22.80;;
3052;SDS011;1536;51.098;6.414;2022-09-11T02:13:36;29.23;;;22.50;;
3052;SDS011;1536;51.098;6.414;2022-09-11T02:16:12;28.50;;;23.97;;
3052;SDS011;1536;51.098;6.414;2022-09-11T02:18:44;30.37;;;23.80;;
3052;SDS011;1536;51.098;6.414;2022-09-11T02:21:19;31.07;;;23.50;;
3052;SDS011;1536;51.098;6.414;2022-09-11T02:23:46;30.80;;;23.47;;
3052;SDS011;1536;51.098;6.414;2022-09-11T02:26:13;37.53;;;25.70;;
3052;SDS011;1536;51.098;6.414;2022-09-11T02:28:45;33.30;;;23.50;;
3052;SDS011;1536;51.098;6.414;2022-09-11T02:31:12;32.40;;;26.30;;
3052;SDS011;1536;51.098;6.414;2022-09-11T02:33:39;31.90;;;25.20;;
3052;SDS011;1536;51.098;6.414;2022-09-11T02:36:13;36.33;;;26.50;;
3052;SDS011;1536;51.098;6.414;2022-09-11T02:39:14;35.80;;;26.30;;
3052;SDS011;1536;51.098;6.414;2022-09-11T02:41:53;31.60;;;25.87;;
3052;SDS011;1536;51.098;6.414;2022-09-11T02:44:35;33.97;;;24.87;;
3052;SDS011;1536;51.098;6.414;2022-09-11T02:47:09;29.97;;;25.30;;
3052;SDS011;1536;51.098;6.414;2022-09-11T02:49:47;34.93;;;23.80;;
3052;SDS011;1536;51.098;6.414;2022-09-11T02:52:26;34.37;;;26.27;;
3052;SDS011;1536;51.098;6.414;2022-09-11T02:55:06;31.03;;;26.77;;
3052;SDS011;1536;51.098;6.414;2022-09-11T02:57:44;33.53;;;25.23;;
3052;SDS011;1536;51.098;6.414;2022-09-11T03:00:16;34.07;;;24.47;;
3052;SDS011;1536;51.098;6.414;2022-09-11T03:02:43;29.73;;;23.27;;
3052;SDS011;1536;51.098;6.414;2022-09-11T03:05:12;29.80;;;26.10;;
3052;SDS011;1536;51.098;6.414;2022-09-11T03:07:39;31.13;;;25.03;;
3052;SDS011;1536;51.098;6.414;2022-09-11T03:10:06;31.70;;;25.20;;
3052;SDS011;1536;51.098;6.414;2022-09-11T03:12:35;32.57;;;24.60;;
3052;SDS011;1536;51.098;6.414;2022-09-11T03:15:02;31.60;;;25.10;;
3052;SDS011;1536;51.098;6.414;2022-09-11T03:17:31;30.43;;;25.47;;
3052;SDS011;1536;51.098;6.414;2022-09-11T03:19:57;30.73;;;26.20;;
3052;SDS011;1536;51.098;6.414;2022-09-11T03:22:24;38.20;;;26.87;;
3052;SDS011;1536;51.098;6.414;2022-09-11T03:24:51;31.77;;;25.13;;
3052;SDS011;1536;51.098;6.414;2022-09-11T03:27:18;28.53;;;24.87;;
3052;SDS011;1536;51.098;6.414;2022-09-11T03:29:45;30.23;;;25.97;;
3052;SDS011;1536;51.098;6.414;2022-09-11T03:32:12;30.83;;;24.50;;
3052;SDS011;1536;51.098;6.414;2022-09-11T03:34:41;33.53;;;26.73;;
3052;SDS011;1536;51.098;6.414;2022-09-11T03:37:08;31.50;;;25.53;;
3052;SDS011;1536;51.098;6.414;2022-09-11T03:39:35;34.53;;;26.50;;
3052;SDS011;1536;51.098;6.414;2022-09-11T03:42:01;30.33;;;25.47;;
3052;SDS011;1536;51.098;6.414;2022-09-11T03:44:28;33.83;;;26.00;;
3052;SDS011;1536;51.098;6.414;2022-09-11T03:46:55;33.77;;;26.00;;
3052;SDS011;1536;51.098;6.414;2022-09-11T03:49:22;36.37;;;27.33;;
3052;SDS011;1536;51.098;6.414;2022-09-11T03:51:50;32.97;;;25.80;;
3052;SDS011;1536;51.098;6.414;2022-09-11T03:54:17;33.33;;;27.00;;
3052;SDS011;1536;51.098;6.414;2022-09-11T03:56:44;33.87;;;28.00;;
3052;SDS011;1536;51.098;6.414;2022-09-11T03:59:11;31.20;;;26.10;;
3052;SDS011;1536;51.098;6.414;2022-09-11T04:01:38;31.17;;;25.13;;
3052;SDS011;1536;51.098;6.414;2022-09-11T04:04:05;32.77;;;27.20;;
3052;SDS011;1536;51.098;6.414;2022-09-11T04:06:31;34.60;;;25.50;;
3052;SDS011;1536;51.098;6.414;2022-09-11T04:09:00;30.40;;;25.00;;
3052;SDS011;1536;51.098;6.414;2022-09-11T04:11:27;33.50;;;25.73;;
3052;SDS011;1536;51.098;6.414;2022-09-11T04:13:54;31.83;;;24.50;;
3052;SDS011;1536;51.098;6.414;2022-09-11T04:16:20;35.30;;;26.93;;
3052;SDS011;1536;51.098;6.414;2022-09-11T04:18:47;29.00;;;25.13;;
3052;SDS011;1536;51.098;6.414;2022-09-11T04:21:16;27.73;;;22.20;;
3052;SDS011;1536;51.098;6.414;2022-09-11T04:23:43;31.90;;;25.17;;
3052;SDS011;1536;51.098;6.414;2022-09-11T04:26:15;31.93;;;25.23;;
3052;SDS011;1536;51.098;6.414;2022-09-11T04:28:43;32.10;;;24.50;;
3052;SDS011;1536;51.098;6.414;2022-09-11T04:31:10;30.00;;;25.03;;
3052;SDS011;1536;51.098;6.414;2022-09-11T04:33:38;26.07;;;23.20;;
3052;SDS011;1536;51.098;6.414;2022-09-11T04:36:05;35.60;;;24.30;;
3052;SDS011;1536;51.098;6.414;2022-09-11T04:38:33;28.67;;;25.57;;
3052;SDS011;1536;51.098;6.414;2022-09-11T04:41:00;30.57;;;25.30;;
3052;SDS011;1536;51.098;6.414;2022-09-11T04:43:29;29.00;;;23.83;;
3052;SDS011;1536;51.098;6.414;2022-09-11T04:46:00;30.53;;;24.80;;
3052;SDS011;1536;51.098;6.414;2022-09-11T04:48:28;30.63;;;26.67;;
3052;SDS011;1536;51.098;6.414;2022-09-11T04:50:59;31.20;;;26.07;;
3052;SDS011;1536;51.098;6.414;2022-09-11T04:53:26;27.10;;;22.83;;
3052;SDS011;1536;51.098;6.414;2022-09-11T04:55:59;30.50;;;25.80;;
3052;SDS011;1536;51.098;6.414;2022-09-11T04:58:27;27.63;;;23.90;;
3052;SDS011;1536;51.098;6.414;2022-09-11T05:00:55;34.10;;;27.43;;
3052;SDS011;1536;51.098;6.414;2022-09-11T05:03:22;31.03;;;25.87;;
3052;SDS011;1536;51.098;6.414;2022-09-11T05:05:49;26.93;;;23.70;;
3052;SDS011;1536;51.098;6.414;2022-09-11T05:08:16;28.57;;;24.33;;
3052;SDS011;1536;51.098;6.414;2022-09-11T05:10:44;27.37;;;22.70;;
3052;SDS011;1536;51.098;6.414;2022-09-11T05:13:12;27.43;;;23.60;;
3052;SDS011;1536;51.098;6.414;2022-09-11T05:15:40;28.83;;;24.70;;
3052;SDS011;1536;51.098;6.414;2022-09-11T05:18:07;29.80;;;25.67;;
3052;SDS011;1536;51.098;6.414;2022-09-11T05:20:35;29.50;;;24.60;;
3052;SDS011;1536;51.098;6.414;2022-09-11T05:23:03;29.33;;;25.47;;
3052;SDS011;1536;51.098;6.414;2022-09-11T05:25:31;38.63;;;27.23;;
3052;SDS011;1536;51.098;6.414;2022-09-11T05:27:58;37.67;;;27.63;;
3052;SDS011;1536;51.098;6.414;2022-09-11T05:30:24;33.97;;;26.60;;
3052;SDS011;1536;51.098;6.414;2022-09-11T05:32:53;29.93;;;25.20;;
3052;SDS011;1536;51.098;6.414;2022-09-11T05:35:20;28.63;;;24.20;;
3052;SDS011;1536;51.098;6.414;2022-09-11T05:37:49;28.03;;;24.97;;
3052;SDS011;1536;51.098;6.414;2022-09-11T05:40:16;30.60;;;23.17;;
3052;SDS011;1536;51.098;6.414;2022-09-11T05:42:43;29.53;;;24.90;;
3052;SDS011;1536;51.098;6.414;2022-09-11T05:45:09;28.23;;;24.40;;
3052;SDS011;1536;51.098;6.414;2022-09-11T05:47:36;29.67;;;24.97;;
3052;SDS011;1536;51.098;6.414;2022-09-11T05:50:06;29.17;;;25.17;;
3052;SDS011;1536;51.098;6.414;2022-09-11T05:52:33;29.77;;;24.57;;
3052;SDS011;1536;51.098;6.414;2022-09-11T05:55:00;28.40;;;23.70;;
3052;SDS011;1536;51.098;6.414;2022-09-11T05:57:27;32.13;;;25.17;;
3052;SDS011;1536;51.098;6.414;2022-09-11T05:59:53;29.80;;;25.13;;
3052;SDS011;1536;51.098;6.414;2022-09-11T06:02:20;27.33;;;24.43;;
3052;SDS011;1536;51.098;6.414;2022-09-11T06:04:47;29.13;;;25.07;;
3052;SDS011;1536;51.098;6.414;2022-09-11T06:07:15;29.93;;;24.70;;
3052;SDS011;1536;51.098;6.414;2022-09-11T06:09:42;27.30;;;23.33;;
3052;SDS011;1536;51.098;6.414;2022-09-11T06:12:08;28.30;;;23.20;;
3052;SDS011;1536;51.098;6.414;2022-09-11T06:14:36;25.30;;;22.03;;
3052;SDS011;1536;51.098;6.414;2022-09-11T06:17:03;25.50;;;22.43;;
3052;SDS011;1536;51.098;6.414;2022-09-11T06:19:30;27.27;;;22.53;;
3052;SDS011;1536;51.098;6.414;2022-09-11T06:21:57;25.70;;;22.90;;
3052;SDS011;1536;51.098;6.414;2022-09-11T06:24:25;28.67;;;22.10;;
3052;SDS011;1536;51.098;6.414;2022-09-11T06:26:52;25.30;;;21.77;;
3052;SDS011;1536;51.098;6.414;2022-09-11T06:29:19;27.03;;;22.87;;
3052;SDS011;1536;51.098;6.414;2022-09-11T06:31:45;26.80;;;23.40;;
3052;SDS011;1536;51.098;6.414;2022-09-11T06:34:15;29.33;;;24.87;;
3052;SDS011;1536;51.098;6.414;2022-09-11T06:36:42;34.13;;;26.40;;
3052;SDS011;1536;51.098;6.414;2022-09-11T06:39:08;30.43;;;23.77;;
3052;SDS011;1536;51.098;6.414;2022-09-11T06:41:37;35.70;;;27.73;;
3052;SDS011;1536;51.098;6.414;2022-09-11T06:44:03;31.37;;;24.67;;
3052;SDS011;1536;51.098;6.414;2022-09-11T06:46:31;34.53;;;25.70;;
3052;SDS011;1536;51.098;6.414;2022-09-11T06:48:59;31.97;;;27.30;;
3052;SDS011;1536;51.098;6.414;2022-09-11T06:51:26;34.27;;;26.83;;
3052;SDS011;1536;51.098;6.414;2022-09-11T06:53:53;29.90;;;25.10;;
3052;SDS011;1536;51.098;6.414;2022-09-11T06:56:22;31.00;;;25.37;;
3052;SDS011;1536;51.098;6.414;2022-09-11T06:58:50;33.57;;;27.00;;
3052;SDS011;1536;51.098;6.414;2022-09-11T07:01:17;26.77;;;23.23;;
3052;SDS011;1536;51.098;6.414;2022-09-11T07:03:45;30.93;;;24.43;;
3052;SDS011;1536;51.098;6.414;2022-09-11T07:06:13;32.33;;;26.17;;
3052;SDS011;1536;51.098;6.414;2022-09-11T07:08:42;30.20;;;24.30;;
3052;SDS011;1536;51.098;6.414;2022-09-11T07:11:10;31.90;;;24.53;;
3052;SDS011;1536;51.098;6.414;2022-09-11T07:13:36;35.57;;;26.13;;
3052;SDS011;1536;51.098;6.414;2022-09-11T07:16:06;33.13;;;26.40;;
3052;SDS011;1536;51.098;6.414;2022-09-11T07:18:37;34.90;;;26.77;;
3052;SDS011;1536;51.098;6.414;2022-09-11T07:21:05;34.43;;;26.07;;
3052;SDS011;1536;51.098;6.414;2022-09-11T07:23:32;45.07;;;28.33;;
3052;SDS011;1536;51.098;6.414;2022-09-11T07:26:00;33.77;;;25.50;;
3052;SDS011;1536;51.098;6.414;2022-09-11T07:28:28;33.73;;;26.60;;
3052;SDS011;1536;51.098;6.414;2022-09-11T07:31:01;36.57;;;28.33;;
3052;SDS011;1536;51.098;6.414;2022-09-11T07:33:30;53.13;;;29.87;;
3052;SDS011;1536;51.098;6.414;2022-09-11T07:35:57;44.23;;;31.50;;
3052;SDS011;1536;51.098;6.414;2022-09-11T07:38:24;38.73;;;30.63;;
3052;SDS011;1536;51.098;6.414;2022-09-11T07:40:53;40.83;;;30.63;;
3052;SDS011;1536;51.098;6.414;2022-09-11T07:43:21;36.30;;;28.20;;
3052;SDS011;1536;51.098;6.414;2022-09-11T07:45:47;35.17;;;26.40;;
3052;SDS011;1536;51.098;6.414;2022-09-11T07:48:17;37.10;;;27.20;;
3052;SDS011;1536;51.098;6.414;2022-09-11T07:50:54;40.03;;;28.00;;
3052;SDS011;1536;51.098;6.414;2022-09-11T07:53:22;41.27;;;28.53;;
3052;SDS011;1536;51.098;6.414;2022-09-11T07:55:49;39.73;;;29.50;;
3052;SDS011;1536;51.098;6.414;2022-09-11T07:58:16;39.63;;;29.87;;
3052;SDS011;1536;51.098;6.414;2022-09-11T08:00:42;38.20;;;29.30;;
3052;SDS011;1536;51.098;6.414;2022-09-11T08:03:10;36.03;;;27.80;;
3052;SDS011;1536;51.098;6.414;2022-09-11T08:05:36;34.83;;;26.30;;
3052;SDS011;1536;51.098;6.414;2022-09-11T08:08:05;36.13;;;27.10;;
3052;SDS011;1536;51.098;6.414;2022-09-11T08:10:31;32.53;;;25.93;;
3052;SDS011;1536;51.098;6.414;2022-09-11T08:13:05;36.80;;;29.30;;
3052;SDS011;1536;51.098;6.414;2022-09-11T08:15:32;40.07;;;30.57;;
3052;SDS011;1536;51.098;6.414;2022-09-11T08:17:59;37.17;;;26.70;;
3052;SDS011;1536;51.098;6.414;2022-09-11T08:20:26;42.00;;;30.93;;
3052;SDS011;1536;51.098;6.414;2022-09-11T08:22:53;37.90;;;29.07;;
3052;SDS011;1536;51.098;6.414;2022-09-11T08:25:21;38.00;;;29.20;;
3052;SDS011;1536;51.098;6.414;2022-09-11T08:27:48;38.70;;;28.20;;
3052;SDS011;1536;51.098;6.414;2022-09-11T08:30:15;37.50;;;27.50;;
3052;SDS011;1536;51.098;6.414;2022-09-11T08:32:42;35.80;;;27.43;;
3052;SDS011;1536;51.098;6.414;2022-09-11T08:35:08;34.67;;;27.20;;
3052;SDS011;1536;51.098;6.414;2022-09-11T08:37:35;37.37;;;25.93;;
3052;SDS011;1536;51.098;6.414;2022-09-11T08:40:02;35.37;;;27.60;;
3052;SDS011;1536;51.098;6.414;2022-09-11T08:42:30;36.90;;;26.60;;
3052;SDS011;1536;51.098;6.414;2022-09-11T08:44:57;33.53;;;26.47;;
3052;SDS011;1536;51.098;6.414;2022-09-11T08:47:26;34.63;;;27.53;;
3052;SDS011;1536;51.098;6.414;2022-09-11T08:49:56;36.13;;;25.77;;
3052;SDS011;1536;51.098;6.414;2022-09-11T08:52:28;30.73;;;25.40;;
3052;SDS011;1536;51.098;6.414;2022-09-11T08:54:57;31.83;;;24.73;;
3052;SDS011;1536;51.098;6.414;2022-09-11T08:57:26;29.10;;;24.53;;
3052;SDS011;1536;51.098;6.414;2022-09-11T09:00:05;35.23;;;27.00;;
3052;SDS011;1536;51.098;6.414;2022-09-11T09:02:43;31.67;;;24.47;;
3052;SDS011;1536;51.098;6.414;2022-09-11T09:05:29;28.83;;;23.63;;
3052;SDS011;1536;51.098;6.414;2022-09-11T09:08:07;25.37;;;22.27;;
3052;SDS011;1536;51.098;6.414;2022-09-11T09:10:55;25.57;;;21.10;;
3052;SDS011;1536;51.098;6.414;2022-09-11T09:13:32;28.40;;;23.30;;
3052;SDS011;1536;51.098;6.414;2022-09-11T09:16:15;27.07;;;22.97;;
3052;SDS011;1536;51.098;6.414;2022-09-11T09:18:52;30.50;;;23.53;;
3052;SDS011;1536;51.098;6.414;2022-09-11T09:21:26;27.87;;;23.07;;
3052;SDS011;1536;51.098;6.414;2022-09-11T09:23:58;29.30;;;24.83;;
3052;SDS011;1536;51.098;6.414;2022-09-11T09:26:28;26.37;;;22.83;;
3052;SDS011;1536;51.098;6.414;2022-09-11T09:29:03;27.50;;;23.60;;
3052;SDS011;1536;51.098;6.414;2022-09-11T09:31:35;28.27;;;22.63;;
3052;SDS011;1536;51.098;6.414;2022-09-11T09:34:03;30.67;;;23.97;;
3052;SDS011;1536;51.098;6.414;2022-09-11T09:36:37;29.87;;;24.90;;
3052;SDS011;1536;51.098;6.414;2022-09-11T09:39:11;29.13;;;22.93;;
3052;SDS011;1536;51.098;6.414;2022-09-11T09:41:50;28.43;;;24.03;;
3052;SDS011;1536;51.098;6.414;2022-09-11T09:44:28;29.53;;;24.40;;
3052;SDS011;1536;51.098;6.414;2022-09-11T09:47:08;28.83;;;23.30;;
3052;SDS011;1536;51.098;6.414;2022-09-11T09:49:36;29.37;;;23.20;;
3052;SDS011;1536;51.098;6.414;2022-09-11T09:52:09;31.17;;;23.40;;
3052;SDS011;1536;51.098;6.414;2022-09-11T09:54:41;29.03;;;21.87;;
3052;SDS011;1536;51.098;6.414;2022-09-11T09:57:09;24.67;;;22.00;;
3052;SDS011;1536;51.098;6.414;2022-09-11T09:59:38;26.83;;;22.13;;
3052;SDS011;1536;51.098;6.414;2022-09-11T10:02:09;25.97;;;20.77;;
3052;SDS011;1536;51.098;6.414;2022-09-11T10:04:37;28.97;;;24.10;;
3052;SDS011;1536;51.098;6.414;2022-09-11T10:07:04;25.10;;;22.40;;
3052;SDS011;1536;51.098;6.414;2022-09-11T10:09:34;23.50;;;20.97;;
3052;SDS011;1536;51.098;6.414;2022-09-11T10:12:11;28.40;;;22.70;;
3052;SDS011;1536;51.098;6.414;2022-09-11T10:14:42;22.57;;;19.93;;
3052;SDS011;1536;51.098;6.414;2022-09-11T10:17:19;28.47;;;20.23;;
3052;SDS011;1536;51.098;6.414;2022-09-11T10:19:47;22.80;;;19.90;;
3052;SDS011;1536;51.098;6.414;2022-09-11T10:22:22;23.30;;;19.53;;
3052;SDS011;1536;51.098;6.414;2022-09-11T10:24:56;22.80;;;19.30;;
3052;SDS011;1536;51.098;6.414;2022-09-11T10:27:26;21.00;;;18.00;;
3052;SDS011;1536;51.098;6.414;2022-09-11T10:29:53;20.17;;;17.77;;
3052;SDS011;1536;51.098;6.414;2022-09-11T10:32:22;21.87;;;17.80;;
3052;SDS011;1536;51.098;6.414;2022-09-11T10:34:50;24.20;;;20.27;;
3052;SDS011;1536;51.098;6.414;2022-09-11T10:37:21;21.83;;;18.47;;
3052;SDS011;1536;51.098;6.414;2022-09-11T10:39:50;20.67;;;17.67;;
3052;SDS011;1536;51.098;6.414;2022-09-11T10:42:19;18.10;;;16.30;;
3052;SDS011;1536;51.098;6.414;2022-09-11T10:44:51;18.50;;;16.47;;
3052;SDS011;1536;51.098;6.414;2022-09-11T10:47:21;18.20;;;15.00;;
3052;SDS011;1536;51.098;6.414;2022-09-11T10:49:55;18.50;;;14.67;;
3052;SDS011;1536;51.098;6.414;2022-09-11T10:52:45;20.33;;;16.13;;
3052;SDS011;1536;51.098;6.414;2022-09-11T10:55:16;19.50;;;16.40;;
3052;SDS011;1536;51.098;6.414;2022-09-11T10:57:45;19.23;;;16.13;;
3052;SDS011;1536;51.098;6.414;2022-09-11T11:00:17;16.23;;;14.53;;
3052;SDS011;1536;51.098;6.414;2022-09-11T11:02:47;17.40;;;15.50;;
3052;SDS011;1536;51.098;6.414;2022-09-11T11:05:20;19.50;;;15.80;;
3052;SDS011;1536;51.098;6.414;2022-09-11T11:08:02;16.83;;;14.40;;
3052;SDS011;1536;51.098;6.414;2022-09-11T11:10:49;19.30;;;14.27;;
3052;SDS011;1536;51.098;6.414;2022-09-11T11:13:40;16.80;;;13.20;;
3052;SDS011;1536;51.098;6.414;2022-09-11T11:16:20;17.67;;;15.30;;
3052;SDS011;1536;51.098;6.414;2022-09-11T11:19:00;16.43;;;14.73;;
3052;SDS011;1536;51.098;6.414;2022-09-11T11:21:42;19.27;;;16.77;;
3052;SDS011;1536;51.098;6.414;2022-09-11T11:24:23;18.73;;;16.40;;
3052;SDS011;1536;51.098;6.414;2022-09-11T11:27:08;19.80;;;14.80;;
3052;SDS011;1536;51.098;6.414;2022-09-11T11:29:56;16.50;;;14.63;;
3052;SDS011;1536;51.098;6.414;2022-09-11T11:32:34;15.20;;;13.50;;
3052;SDS011;1536;51.098;6.414;2022-09-11T11:35:19;14.67;;;12.73;;
3052;SDS011;1536;51.098;6.414;2022-09-11T11:37:51;17.73;;;13.27;;
3052;SDS011;1536;51.098;6.414;2022-09-11T11:40:26;14.30;;;11.77;;
3052;SDS011;1536;51.098;6.414;2022-09-11T11:42:57;18.00;;;14.20;;
3052;SDS011;1536;51.098;6.414;2022-09-11T11:45:30;15.60;;;13.80;;
3052;SDS011;1536;51.098;6.414;2022-09-11T11:48:03;13.83;;;12.50;;
3052;SDS011;1536;51.098;6.414;2022-09-11T11:50:40;12.33;;;11.17;;
3052;SDS011;1536;51.098;6.414;2022-09-11T11:53:09;10.33;;;9.33;;
3052;SDS011;1536;51.098;6.414;2022-09-11T11:55:45;9.70;;;8.20;;
3052;SDS011;1536;51.098;6.414;2022-09-11T11:58:21;11.33;;;8.70;;
3052;SDS011;1536;51.098;6.414;2022-09-11T12:00:55;10.40;;;9.30;;
3052;SDS011;1536;51.098;6.414;2022-09-11T12:03:26;9.93;;;8.97;;
3052;SDS011;1536;51.098;6.414;2022-09-11T12:05:59;11.80;;;9.70;;
3052;SDS011;1536;51.098;6.414;2022-09-11T12:08:27;9.57;;;7.50;;
3052;SDS011;1536;51.098;6.414;2022-09-11T12:10:55;10.50;;;7.37;;
3052;SDS011;1536;51.098;6.414;2022-09-11T12:13:27;9.27;;;7.17;;
3052;SDS011;1536;51.098;6.414;2022-09-11T12:15:56;9.50;;;8.60;;
3052;SDS011;1536;51.098;6.414;2022-09-11T12:18:28;11.40;;;9.50;;
3052;SDS011;1536;51.098;6.414;2022-09-11T12:24:11;10.03;;;8.87;;
3052;SDS011;1536;51.098;6.414;2022-09-11T12:26:41;12.83;;;10.07;;
3052;SDS011;1536;51.098;6.414;2022-09-11T12:35:17;12.70;;;9.13;;
3052;SDS011;1536;51.098;6.414;2022-09-11T12:37:55;11.43;;;9.27;;
3052;SDS011;1536;51.098;6.414;2022-09-11T12:40:30;8.73;;;7.77;;
3052;SDS011;1536;51.098;6.414;2022-09-11T12:43:15;8.53;;;7.50;;
3052;SDS011;1536;51.098;6.414;2022-09-11T12:45:52;10.00;;;7.47;;
3052;SDS011;1536;51.098;6.414;2022-09-11T12:48:21;8.97;;;6.60;;
3052;SDS011;1536;51.098;6.414;2022-09-11T12:50:51;9.90;;;6.70;;
3052;SDS011;1536;51.098;6.414;2022-09-11T12:53:21;9.33;;;6.93;;
3052;SDS011;1536;51.098;6.414;2022-09-11T12:55:54;7.47;;;5.90;;
3052;SDS011;1536;51.098;6.414;2022-09-11T12:58:25;6.60;;;5.13;;
3052;SDS011;1536;51.098;6.414;2022-09-11T13:01:01;8.27;;;4.87;;
3052;SDS011;1536;51.098;6.414;2022-09-11T13:03:31;6.97;;;4.90;;
3052;SDS011;1536;51.098;6.414;2022-09-11T13:05:59;8.77;;;4.77;;
3052;SDS011;1536;51.098;6.414;2022-09-11T13:08:31;6.80;;;6.10;;
3052;SDS011;1536;51.098;6.414;2022-09-11T13:17:12;12.57;;;6.17;;
3052;SDS011;1536;51.098;6.414;2022-09-11T13:19:42;7.77;;;5.40;;
3052;SDS011;1536;51.098;6.414;2022-09-11T13:22:22;6.03;;;5.40;;
3052;SDS011;1536;51.098;6.414;2022-09-11T13:25:05;6.00;;;4.30;;
3052;SDS011;1536;51.098;6.414;2022-09-11T13:27:38;5.40;;;4.57;;
3052;SDS011;1536;51.098;6.414;2022-09-11T13:30:07;6.60;;;5.37;;
3052;SDS011;1536;51.098;6.414;2022-09-11T13:32:37;9.20;;;7.33;;
3052;SDS011;1536;51.098;6.414;2022-09-11T13:35:05;8.50;;;6.60;;
3052;SDS011;1536;51.098;6.414;2022-09-11T13:37:39;9.30;;;7.80;;
3052;SDS011;1536;51.098;6.414;2022-09-11T13:40:15;10.43;;;8.10;;
3052;SDS011;1536;51.098;6.414;2022-09-11T13:42:46;8.93;;;8.00;;
3052;SDS011;1536;51.098;6.414;2022-09-11T13:45:14;8.93;;;6.80;;
3052;SDS011;1536;51.098;6.414;2022-09-11T13:47:43;8.47;;;7.07;;
3052;SDS011;1536;51.098;6.414;2022-09-11T13:50:10;7.50;;;6.20;;
3052;SDS011;1536;51.098;6.414;2022-09-11T13:52:38;8.10;;;7.27;;
3052;SDS011;1536;51.098;6.414;2022-09-11T13:55:08;8.53;;;6.87;;
3052;SDS011;1536;51.098;6.414;2022-09-11T13:57:50;7.10;;;6.10;;
3052;SDS011;1536;51.098;6.414;2022-09-11T14:00:37;10.83;;;6.70;;
3052;SDS011;1536;51.098;6.414;2022-09-11T14:03:10;6.53;;;4.97;;
3052;SDS011;1536;51.098;6.414;2022-09-11T14:05:47;5.77;;;5.17;;
3052;SDS011;1536;51.098;6.414;2022-09-11T14:08:18;7.43;;;6.43;;
3052;SDS011;1536;51.098;6.414;2022-09-11T14:10:48;7.83;;;4.60;;
3052;SDS011;1536;51.098;6.414;2022-09-11T14:13:18;6.63;;;4.93;;
3052;SDS011;1536;51.098;6.414;2022-09-11T14:15:52;5.30;;;4.80;;
3052;SDS011;1536;51.098;6.414;2022-09-11T14:18:25;6.30;;;4.40;;
3052;SDS011;1536;51.098;6.414;2022-09-11T14:20:56;5.63;;;5.03;;
3052;SDS011;1536;51.098;6.414;2022-09-11T14:23:26;5.43;;;4.93;;
3052;SDS011;1536;51.098;6.414;2022-09-11T14:26:10;6.57;;;5.57;;
3052;SDS011;1536;51.098;6.414;2022-09-11T14:28:48;11.83;;;7.50;;
3052;SDS011;1536;51.098;6.414;2022-09-11T14:31:27;7.70;;;6.90;;
3052;SDS011;1536;51.098;6.414;2022-09-11T14:34:10;7.73;;;6.30;;
3052;SDS011;1536;51.098;6.414;2022-09-11T14:36:39;8.83;;;7.93;;
3052;SDS011;1536;51.098;6.414;2022-09-11T14:39:11;11.17;;;8.63;;
3052;SDS011;1536;51.098;6.414;2022-09-11T14:41:43;11.60;;;7.13;;
3052;SDS011;1536;51.098;6.414;2022-09-11T14:44:13;10.00;;;7.80;;
3052;SDS011;1536;51.098;6.414;2022-09-11T14:46:42;8.37;;;7.30;;
3052;SDS011;1536;51.098;6.414;2022-09-11T14:49:09;10.37;;;8.60;;
3052;SDS011;1536;51.098;6.414;2022-09-11T14:51:36;11.63;;;7.37;;
3052;SDS011;1536;51.098;6.414;2022-09-11T14:54:06;12.10;;;6.87;;
3052;SDS011;1536;51.098;6.414;2022-09-11T14:56:39;7.97;;;7.10;;
3052;SDS011;1536;51.098;6.414;2022-09-11T14:59:05;8.93;;;7.20;;
3052;SDS011;1536;51.098;6.414;2022-09-11T15:01:34;9.83;;;8.57;;
3052;SDS011;1536;51.098;6.414;2022-09-11T15:04:01;9.37;;;7.67;;
3052;SDS011;1536;51.098;6.414;2022-09-11T15:06:28;9.23;;;7.17;;
3052;SDS011;1536;51.098;6.414;2022-09-11T15:08:55;8.97;;;6.40;;
3052;SDS011;1536;51.098;6.414;2022-09-11T15:11:22;7.30;;;6.23;;
3052;SDS011;1536;51.098;6.414;2022-09-11T15:13:49;7.43;;;6.30;;
3052;SDS011;1536;51.098;6.414;2022-09-11T15:16:16;10.60;;;7.30;;
3052;SDS011;1536;51.098;6.414;2022-09-11T15:18:44;8.10;;;6.90;;
3052;SDS011;1536;51.098;6.414;2022-09-11T15:21:11;6.87;;;6.27;;
3052;SDS011;1536;51.098;6.414;2022-09-11T15:23:39;7.43;;;6.60;;
3052;SDS011;1536;51.098;6.414;2022-09-11T15:26:07;6.40;;;5.30;;
3052;SDS011;1536;51.098;6.414;2022-09-11T15:28:36;7.03;;;6.30;;
3052;SDS011;1536;51.098;6.414;2022-09-11T15:31:03;11.27;;;6.07;;